createdAt,value
2018-09-06T00:00:22.619Z,10.40
2018-09-06T00:02:09.994Z,12.00
2018-09-06T00:03:46.194Z,12.20
2018-09-06T00:05:21.496Z,10.60
2018-09-06T00:06:56.753Z,10.20
2018-09-06T00:08:32.573Z,10.40
2018-09-06T00:10:08.450Z,12.40
2018-09-06T00:11:44.056Z,11.20
2018-09-06T00:13:19.929Z,11.00
2018-09-06T00:14:55.148Z,10.00
2018-09-06T00:16:30.738Z,11.20
2018-09-06T00:18:06.383Z,12.20
2018-09-06T00:19:41.471Z,12.00
2018-09-06T00:21:16.646Z,13.60
2018-09-06T00:22:51.913Z,13.60
2018-09-06T00:24:27.855Z,13.60
2018-09-06T00:26:02.970Z,11.60
2018-09-06T00:27:39.076Z,10.80
2018-09-06T00:29:14.726Z,12.00
2018-09-06T00:30:51.223Z,13.60
2018-09-06T00:32:27.604Z,12.40
2018-09-06T00:34:03.071Z,10.00
2018-09-06T00:35:40.798Z,9.00
2018-09-06T00:37:16.253Z,13.80
2018-09-06T00:38:52.658Z,10.80
2018-09-06T00:41:31.286Z,12.80
2018-09-06T00:43:06.302Z,11.80
2018-09-06T00:44:44.114Z,12.80
2018-09-06T00:46:20.351Z,9.60
2018-09-06T00:47:56.111Z,13.00
2018-09-06T00:49:31.827Z,12.80
2018-09-06T00:51:07.121Z,12.60
2018-09-06T00:52:42.296Z,13.80
2018-09-06T00:54:17.968Z,11.00
2018-09-06T00:55:53.798Z,12.40
2018-09-06T00:57:29.722Z,10.80
2018-09-06T00:59:05.383Z,16.00
2018-09-06T01:00:40.684Z,13.60
2018-09-06T01:02:16.603Z,13.40
2018-09-06T01:03:52.031Z,10.60
2018-09-06T01:05:27.082Z,11.00
2018-09-06T01:07:02.198Z,11.20
2018-09-06T01:08:37.772Z,9.80
2018-09-06T01:10:13.342Z,13.00
2018-09-06T01:11:48.820Z,14.00
2018-09-06T01:13:23.818Z,10.80
2018-09-06T01:14:59.129Z,11.60
2018-09-06T01:16:34.629Z,14.20
2018-09-06T01:18:09.701Z,14.60
2018-09-06T01:19:44.896Z,12.00
2018-09-06T01:21:20.349Z,14.80
2018-09-06T01:22:56.804Z,14.00
2018-09-06T01:24:32.247Z,12.60
2018-09-06T01:26:07.440Z,13.60
2018-09-06T01:27:42.744Z,14.20
2018-09-06T01:29:17.982Z,12.60
2018-09-06T01:30:53.257Z,14.80
2018-09-06T01:32:29.087Z,9.00
2018-09-06T01:34:04.247Z,13.00
2018-09-06T01:35:45.562Z,14.00
2018-09-06T01:37:20.635Z,5.40
2018-09-06T01:38:56.597Z,15.00
2018-09-06T01:40:32.049Z,13.00
2018-09-06T01:42:07.700Z,9.80
2018-09-06T01:43:42.887Z,14.00
2018-09-06T01:45:17.875Z,13.00
2018-09-06T01:46:53.793Z,13.40
2018-09-06T01:48:29.048Z,12.80
2018-09-06T01:50:04.372Z,12.00
2018-09-06T01:51:39.664Z,10.20
2018-09-06T01:53:14.615Z,12.00
2018-09-06T01:54:49.976Z,14.20
2018-09-06T01:56:25.096Z,13.40
2018-09-06T01:58:00.315Z,13.20
2018-09-06T01:59:40.740Z,15.00
2018-09-06T02:01:15.720Z,15.00
2018-09-06T02:02:51.128Z,12.80
2018-09-06T02:04:26.219Z,12.00
2018-09-06T02:06:01.491Z,18.60
2018-09-06T02:07:36.413Z,14.80
2018-09-06T02:09:11.901Z,18.80
2018-09-06T02:10:47.149Z,15.20
2018-09-06T02:12:22.137Z,15.00
2018-09-06T02:13:57.443Z,9.80
2018-09-06T02:15:32.732Z,15.20
2018-09-06T02:17:08.260Z,14.80
2018-09-06T02:18:43.455Z,15.80
2018-09-06T02:20:18.565Z,15.00
2018-09-06T02:21:53.684Z,11.60
2018-09-06T02:23:28.770Z,14.80
2018-09-06T02:25:04.313Z,12.60
2018-09-06T02:26:39.264Z,14.60
2018-09-06T02:28:14.372Z,13.40
2018-09-06T02:29:50.398Z,11.20
2018-09-06T02:31:25.444Z,15.00
2018-09-06T02:33:00.832Z,13.20
2018-09-06T02:34:35.856Z,13.20
2018-09-06T02:36:11.098Z,13.60
2018-09-06T02:37:46.365Z,14.00
2018-09-06T02:39:21.741Z,13.60
2018-09-06T02:40:57.582Z,14.80
2018-09-06T02:42:32.753Z,12.00
2018-09-06T02:44:07.948Z,11.60
2018-09-06T02:45:44.275Z,14.20
2018-09-06T02:47:19.333Z,13.60
2018-09-06T02:48:54.549Z,12.60
2018-09-06T02:50:34.480Z,12.80
2018-09-06T02:52:09.473Z,12.00
2018-09-06T02:53:44.528Z,12.60
2018-09-06T02:55:19.524Z,14.40
2018-09-06T02:56:55.189Z,12.00
2018-09-06T02:58:31.746Z,15.60
2018-09-06T03:00:14.308Z,13.60
2018-09-06T03:01:49.889Z,12.00
2018-09-06T03:03:25.176Z,13.60
2018-09-06T03:05:00.767Z,16.40
2018-09-06T03:06:37.916Z,15.00
2018-09-06T03:08:13.416Z,13.20
2018-09-06T03:09:49.111Z,13.80
2018-09-06T03:11:27.283Z,13.20
2018-09-06T03:13:02.891Z,13.60
2018-09-06T03:14:39.121Z,9.40
2018-09-06T03:16:14.939Z,11.60
2018-09-06T03:17:51.724Z,11.80
2018-09-06T03:19:27.782Z,13.20
2018-09-06T03:21:02.694Z,6.60
2018-09-06T03:22:37.788Z,12.00
2018-09-06T03:24:12.806Z,13.80
2018-09-06T03:25:48.281Z,13.00
2018-09-06T03:27:23.932Z,12.80
2018-09-06T03:28:59.130Z,12.80
2018-09-06T03:30:34.355Z,14.80
2018-09-06T03:32:09.852Z,13.00
2018-09-06T03:33:45.215Z,14.80
2018-09-06T03:35:20.750Z,12.60
2018-09-06T03:36:55.730Z,12.40
2018-09-06T03:38:30.868Z,16.00
2018-09-06T03:40:06.165Z,14.00
2018-09-06T03:41:41.227Z,12.20
2018-09-06T03:43:16.694Z,13.60
2018-09-06T03:44:51.941Z,17.20
2018-09-06T03:46:27.287Z,16.20
2018-09-06T03:48:03.167Z,18.00
2018-09-06T03:49:38.644Z,16.60
2018-09-06T03:51:14.445Z,16.00
2018-09-06T03:52:49.495Z,15.40
2018-09-06T03:54:24.757Z,15.60
2018-09-06T03:56:00.428Z,11.80
2018-09-06T03:57:36.488Z,15.60
2018-09-06T03:59:12.048Z,18.40
2018-09-06T04:00:47.488Z,19.20
2018-09-06T04:02:23.727Z,15.60
2018-09-06T04:03:59.572Z,15.00
2018-09-06T04:05:34.734Z,16.00
2018-09-06T04:07:10.465Z,13.60
2018-09-06T04:08:52.125Z,17.60
2018-09-06T04:10:27.588Z,16.60
2018-09-06T04:12:02.775Z,19.80
2018-09-06T04:13:39.918Z,17.20
2018-09-06T04:15:18.032Z,16.20
2018-09-06T04:16:55.040Z,14.60
2018-09-06T04:18:31.866Z,17.20
2018-09-06T04:20:07.892Z,15.80
2018-09-06T04:21:51.189Z,18.00
2018-09-06T04:23:26.759Z,18.60
2018-09-06T04:25:01.937Z,17.60
2018-09-06T04:26:37.726Z,20.00
2018-09-06T04:28:13.453Z,20.40
2018-09-06T04:29:48.897Z,18.40
2018-09-06T04:31:24.118Z,20.40
2018-09-06T04:32:59.156Z,19.00
2018-09-06T04:34:34.334Z,20.60
2018-09-06T04:36:09.823Z,16.80
2018-09-06T04:37:45.198Z,16.00
2018-09-06T04:39:20.615Z,16.80
2018-09-06T04:40:56.415Z,16.80
2018-09-06T04:42:32.993Z,18.20
2018-09-06T04:44:08.216Z,19.60
2018-09-06T04:45:44.444Z,17.80
2018-09-06T04:47:20.635Z,18.00
2018-09-06T04:48:55.772Z,19.40
2018-09-06T04:50:31.134Z,16.20
2018-09-06T04:52:06.888Z,18.00
2018-09-06T04:53:42.555Z,20.20
2018-09-06T04:55:18.432Z,20.80
2018-09-06T04:56:53.685Z,23.20
2018-09-06T04:58:30.081Z,23.20
2018-09-06T05:00:06.892Z,21.20
2018-09-06T05:01:42.990Z,21.00
2018-09-06T05:03:19.049Z,16.40
2018-09-06T05:04:54.554Z,21.00
2018-09-06T05:06:30.874Z,20.00
2018-09-06T05:08:21.542Z,24.00
2018-09-06T05:09:56.997Z,21.40
2018-09-06T05:11:36.774Z,21.00
2018-09-06T05:13:12.271Z,26.60
2018-09-06T05:14:48.922Z,25.20
2018-09-06T05:16:26.785Z,20.20
2018-09-06T05:18:03.963Z,22.80
2018-09-06T05:19:40.939Z,21.60
2018-09-06T05:21:23.774Z,22.00
2018-09-06T05:23:21.636Z,15.60
2018-09-06T05:24:58.393Z,17.20
2018-09-06T05:26:39.203Z,17.60
2018-09-06T05:28:15.444Z,20.20
2018-09-06T05:29:51.571Z,20.80
2018-09-06T05:31:27.735Z,21.60
2018-09-06T05:33:05.851Z,21.80
2018-09-06T05:34:43.851Z,23.00
2018-09-06T05:36:21.611Z,21.60
2018-09-06T05:37:57.432Z,22.40
2018-09-06T05:39:34.951Z,24.80
2018-09-06T05:41:13.549Z,10.60
2018-09-06T05:42:50.844Z,22.60
2018-09-06T05:44:27.306Z,16.60
2018-09-06T05:46:04.151Z,21.20
2018-09-06T05:47:42.616Z,7.80
2018-09-06T05:49:18.997Z,19.60
2018-09-06T05:50:56.113Z,20.00
2018-09-06T05:52:33.802Z,23.40
2018-09-06T05:54:10.674Z,18.60
2018-09-06T05:55:48.952Z,17.00
2018-09-06T05:57:24.740Z,6.40
2018-09-06T05:59:00.431Z,18.60
2018-09-06T06:00:42.127Z,15.20
2018-09-06T06:02:18.165Z,17.00
2018-09-06T06:03:54.562Z,14.60
2018-09-06T06:05:30.306Z,16.60
2018-09-06T06:07:14.558Z,19.00
2018-09-06T06:08:51.163Z,12.20
2018-09-06T06:10:26.842Z,15.00
2018-09-06T06:12:02.915Z,14.80
2018-09-06T06:13:40.649Z,14.60
2018-09-06T06:15:18.794Z,14.80
2018-09-06T06:16:54.619Z,13.00
2018-09-06T06:18:30.099Z,17.80
2018-09-06T06:20:06.415Z,14.20
2018-09-06T06:21:44.474Z,11.60
2018-09-06T06:23:21.731Z,15.80
2018-09-06T06:24:58.451Z,15.00
2018-09-06T06:26:37.614Z,14.40
2018-09-06T06:28:16.274Z,14.80
2018-09-06T06:29:52.895Z,13.80
2018-09-06T06:31:31.359Z,15.60
2018-09-06T06:33:07.046Z,15.00
2018-09-06T06:34:45.901Z,16.60
2018-09-06T06:36:22.269Z,13.00
2018-09-06T06:37:59.002Z,15.40
2018-09-06T06:39:34.530Z,11.00
2018-09-06T06:41:09.777Z,19.40
2018-09-06T06:42:45.293Z,14.00
2018-09-06T06:44:21.085Z,17.80
2018-09-06T06:45:56.373Z,14.60
2018-09-06T06:47:32.327Z,20.60
2018-09-06T06:49:11.343Z,17.60
2018-09-06T06:50:52.014Z,17.00
2018-09-06T06:52:33.687Z,19.00
2018-09-06T06:54:11.630Z,17.60
2018-09-06T06:55:49.218Z,17.80
2018-09-06T06:57:26.196Z,20.00
2018-09-06T06:59:01.571Z,14.60
2018-09-06T07:00:40.413Z,16.00
2018-09-06T07:02:17.608Z,18.00
2018-09-06T07:03:52.740Z,15.60
2018-09-06T07:05:28.290Z,17.20
2018-09-06T07:07:04.322Z,16.40
2018-09-06T07:08:39.702Z,15.80
2018-09-06T07:10:16.417Z,16.60
2018-09-06T07:11:52.589Z,14.00
2018-09-06T07:13:28.310Z,11.40
2018-09-06T07:15:05.359Z,19.00
2018-09-06T07:16:41.347Z,17.40
2018-09-06T07:18:18.587Z,17.20
2018-09-06T07:19:54.199Z,17.60
2018-09-06T07:21:29.585Z,16.80
2018-09-06T07:23:06.736Z,20.40
2018-09-06T07:24:42.054Z,18.00
2018-09-06T07:26:18.360Z,18.00
2018-09-06T07:27:55.168Z,17.00
2018-09-06T07:29:33.226Z,18.60
2018-09-06T07:31:12.970Z,16.20
2018-09-06T07:32:49.360Z,17.20
2018-09-06T07:34:26.986Z,16.40
2018-09-06T07:36:06.428Z,19.80
2018-09-06T07:37:42.162Z,18.60
2018-09-06T07:39:17.835Z,19.20
2018-09-06T07:40:53.512Z,20.40
2018-09-06T07:42:30.908Z,19.20
2018-09-06T07:44:06.656Z,17.80
2018-09-06T07:45:42.105Z,16.40
2018-09-06T07:47:19.343Z,18.20
2018-09-06T07:48:57.805Z,16.40
2018-09-06T07:50:32.930Z,18.00
2018-09-06T07:52:10.512Z,18.80
2018-09-06T07:53:47.599Z,17.40
2018-09-06T07:55:31.230Z,16.40
2018-09-06T07:57:08.296Z,13.80
2018-09-06T07:58:52.560Z,17.00
2018-09-06T08:00:29.436Z,14.20
2018-09-06T08:02:04.699Z,16.00
2018-09-06T08:03:41.086Z,17.20
2018-09-06T08:05:16.143Z,17.00
2018-09-06T08:06:52.783Z,17.60
2018-09-06T08:08:28.328Z,14.00
2018-09-06T08:10:03.742Z,19.60
2018-09-06T08:11:41.247Z,17.00
2018-09-06T08:13:19.438Z,14.20
2018-09-06T08:14:56.426Z,20.00
2018-09-06T08:16:32.092Z,16.80
2018-09-06T08:18:09.230Z,18.20
2018-09-06T08:19:48.928Z,20.40
2018-09-06T08:21:25.729Z,17.20
2018-09-06T08:23:01.542Z,20.40
2018-09-06T08:24:38.556Z,17.00
2018-09-06T08:26:15.286Z,17.80
2018-09-06T08:27:50.833Z,12.00
2018-09-06T08:29:27.369Z,13.60
2018-09-06T08:31:03.472Z,18.00
2018-09-06T08:32:42.226Z,19.40
2018-09-06T08:34:19.998Z,16.60
2018-09-06T08:35:56.263Z,21.20
2018-09-06T08:37:32.076Z,19.00
2018-09-06T08:39:11.642Z,17.40
2018-09-06T08:40:47.446Z,17.20
2018-09-06T08:42:23.965Z,17.60
2018-09-06T08:43:59.584Z,18.00
2018-09-06T08:45:36.547Z,17.60
2018-09-06T08:47:12.788Z,20.00
2018-09-06T08:48:49.463Z,19.80
2018-09-06T08:50:24.438Z,16.40
2018-09-06T08:52:01.735Z,15.20
2018-09-06T08:53:37.245Z,17.80
2018-09-06T08:55:13.000Z,15.80
2018-09-06T08:56:50.469Z,16.00
2018-09-06T08:58:27.314Z,20.20
2018-09-06T09:00:06.008Z,19.20
2018-09-06T09:01:43.443Z,19.00
2018-09-06T09:03:23.939Z,19.20
2018-09-06T09:04:59.602Z,16.20
2018-09-06T09:06:35.431Z,17.40
2018-09-06T09:08:12.559Z,20.00
2018-09-06T09:09:48.113Z,13.00
2018-09-06T09:11:25.657Z,16.60
2018-09-06T09:13:03.138Z,17.20
2018-09-06T09:14:39.085Z,16.00
2018-09-06T09:16:14.954Z,16.60
2018-09-06T09:17:50.926Z,16.80
2018-09-06T09:19:27.164Z,15.80
2018-09-06T09:21:02.774Z,15.00
2018-09-06T09:22:40.110Z,16.20
2018-09-06T09:24:16.339Z,15.80
2018-09-06T09:25:52.673Z,15.00
2018-09-06T09:27:30.806Z,17.00
2018-09-06T09:29:05.995Z,16.20
2018-09-06T09:30:42.550Z,15.80
2018-09-06T09:32:17.886Z,16.80
2018-09-06T09:33:53.895Z,16.60
2018-09-06T09:35:29.250Z,15.00
2018-09-06T09:37:05.322Z,17.00
2018-09-06T09:38:42.897Z,20.00
2018-09-06T09:40:20.527Z,17.60
2018-09-06T09:41:55.701Z,18.00
2018-09-06T09:43:31.983Z,19.60
2018-09-06T09:45:12.612Z,16.80
2018-09-06T09:48:22.806Z,18.00
2018-09-06T09:49:59.297Z,18.20
2018-09-06T09:51:34.896Z,20.00
2018-09-06T09:53:11.355Z,19.20
2018-09-06T09:54:47.381Z,21.20
2018-09-06T09:56:24.261Z,20.00
2018-09-06T09:57:59.747Z,20.00
2018-09-06T09:59:36.499Z,17.60
2018-09-06T10:02:48.763Z,20.00
2018-09-06T10:04:30.689Z,19.40
2018-09-06T10:08:20.029Z,23.20
2018-09-06T10:09:58.930Z,20.40
2018-09-06T10:11:35.942Z,18.20
2018-09-06T10:13:13.656Z,18.00
2018-09-06T10:14:52.046Z,22.20
2018-09-06T10:16:28.743Z,18.40
2018-09-06T10:18:06.397Z,17.00
2018-09-06T10:21:28.841Z,19.40
2018-09-06T10:23:05.494Z,20.20
2018-09-06T10:24:41.689Z,20.60
2018-09-06T10:26:18.871Z,20.40
2018-09-06T10:27:56.867Z,19.20
2018-09-06T10:29:46.171Z,19.80
2018-09-06T10:31:23.344Z,20.40
2018-09-06T10:32:59.532Z,16.20
2018-09-06T10:34:37.433Z,24.40
2018-09-06T10:36:14.677Z,22.20
2018-09-06T10:37:53.234Z,16.80
2018-09-06T10:39:38.631Z,20.00
2018-09-06T10:41:14.912Z,19.00
2018-09-06T10:42:51.317Z,20.20
2018-09-06T10:44:33.591Z,19.00
2018-09-06T10:46:17.287Z,20.20
2018-09-06T10:47:57.066Z,18.40
2018-09-06T10:49:35.309Z,19.00
2018-09-06T10:51:14.163Z,14.00
2018-09-06T10:52:56.183Z,20.60
2018-09-06T10:54:35.632Z,18.40
2018-09-06T10:56:11.898Z,20.00
2018-09-06T10:57:47.917Z,17.20
2018-09-06T10:59:23.387Z,12.60
2018-09-06T11:01:05.348Z,16.40
2018-09-06T11:02:44.173Z,19.00
2018-09-06T11:04:20.008Z,16.40
2018-09-06T11:05:56.579Z,14.60
2018-09-06T11:07:35.221Z,17.40
2018-09-06T11:09:12.700Z,17.20
2018-09-06T11:10:49.457Z,17.20
2018-09-06T11:12:26.515Z,16.80
2018-09-06T11:14:03.492Z,20.60
2018-09-06T11:15:41.428Z,21.00
2018-09-06T11:17:19.508Z,20.00
2018-09-06T11:18:56.094Z,19.20
2018-09-06T11:20:32.094Z,21.00
2018-09-06T11:22:10.765Z,18.60
2018-09-06T11:23:47.087Z,21.80
2018-09-06T11:25:27.691Z,16.60
2018-09-06T11:27:03.928Z,22.00
2018-09-06T11:28:39.870Z,18.20
2018-09-06T11:30:17.857Z,14.20
2018-09-06T11:31:55.577Z,20.60
2018-09-06T11:33:37.080Z,21.00
2018-09-06T11:35:13.624Z,19.60
2018-09-06T11:36:51.040Z,17.60
2018-09-06T11:38:27.056Z,21.20
2018-09-06T11:40:03.883Z,19.80
2018-09-06T11:41:39.848Z,19.00
2018-09-06T11:43:16.771Z,17.40
2018-09-06T11:44:53.588Z,18.00
2018-09-06T11:46:31.584Z,18.00
2018-09-06T11:48:14.601Z,17.20
2018-09-06T11:49:49.794Z,19.00
2018-09-06T11:51:25.313Z,20.20
2018-09-06T11:53:00.554Z,22.80
2018-09-06T11:54:36.362Z,21.80
2018-09-06T11:56:12.816Z,18.80
2018-09-06T11:57:49.099Z,17.20
2018-09-06T11:59:25.522Z,20.80
2018-09-06T12:01:00.810Z,21.20
2018-09-06T12:02:37.184Z,20.80
2018-09-06T12:04:12.479Z,18.20
2018-09-06T12:05:49.274Z,20.00
2018-09-06T12:07:27.706Z,17.00
2018-09-06T12:09:04.957Z,19.80
2018-09-06T12:10:40.598Z,21.40
2018-09-06T12:12:16.283Z,22.60
2018-09-06T12:13:52.710Z,21.00
2018-09-06T12:15:28.345Z,22.40
2018-09-06T12:17:08.057Z,18.40
2018-09-06T12:18:45.278Z,21.00
2018-09-06T12:20:21.128Z,17.40
2018-09-06T12:21:57.616Z,18.80
2018-09-06T12:23:34.777Z,22.40
2018-09-06T12:25:13.593Z,23.40
2018-09-06T12:26:50.620Z,21.20
2018-09-06T12:28:26.981Z,22.00
2018-09-06T12:30:06.931Z,22.20
2018-09-06T12:31:42.334Z,19.60
2018-09-06T12:33:21.410Z,23.00
2018-09-06T12:34:57.335Z,23.00
2018-09-06T12:36:33.044Z,16.40
2018-09-06T12:38:08.693Z,22.80
2018-09-06T12:39:45.333Z,21.20
2018-09-06T12:41:20.773Z,23.00
2018-09-06T12:42:57.848Z,22.00
2018-09-06T12:44:34.045Z,22.20
2018-09-06T12:46:10.552Z,22.80
2018-09-06T12:47:55.938Z,25.00
2018-09-06T12:49:32.744Z,23.60
2018-09-06T12:51:10.030Z,22.60
2018-09-06T12:52:46.507Z,24.20
2018-09-06T12:54:22.555Z,21.60
2018-09-06T12:55:59.009Z,22.40
2018-09-06T12:57:35.649Z,25.20
2018-09-06T12:59:11.770Z,23.20
2018-09-06T13:00:47.359Z,21.00
2018-09-06T13:02:23.726Z,22.80
2018-09-06T13:04:00.458Z,23.20
2018-09-06T13:05:37.688Z,23.20
2018-09-06T13:07:12.820Z,23.20
2018-09-06T13:08:52.120Z,18.60
2018-09-06T13:10:29.493Z,24.00
2018-09-06T13:12:04.974Z,21.60
2018-09-06T13:13:40.504Z,21.40
2018-09-06T13:15:28.390Z,21.60
2018-09-06T13:17:07.766Z,19.60
2018-09-06T13:18:49.300Z,18.80
2018-09-06T13:20:26.855Z,14.00
2018-09-06T13:22:01.738Z,20.20
2018-09-06T13:23:37.436Z,17.00
2018-09-06T13:25:12.695Z,17.20
2018-09-06T13:26:52.641Z,16.80
2018-09-06T13:28:28.418Z,18.20
2018-09-06T13:30:07.923Z,17.40
2018-09-06T13:31:48.553Z,20.20
2018-09-06T13:33:25.810Z,19.60
2018-09-06T13:35:01.513Z,16.00
2018-09-06T13:36:42.054Z,17.20
2018-09-06T13:38:18.258Z,17.20
2018-09-06T13:39:54.689Z,16.80
2018-09-06T13:41:32.528Z,17.20
2018-09-06T13:43:09.823Z,17.60
2018-09-06T13:44:47.547Z,16.80
2018-09-06T13:46:25.409Z,17.20
2018-09-06T13:48:01.309Z,17.20
2018-09-06T13:49:45.112Z,17.40
2018-09-06T13:51:24.273Z,17.60
2018-09-06T13:53:00.945Z,17.40
2018-09-06T13:54:43.293Z,17.80
2018-09-06T13:56:19.890Z,19.60
2018-09-06T13:57:56.421Z,18.00
2018-09-06T13:59:31.727Z,18.40
2018-09-06T14:01:08.613Z,21.40
2018-09-06T14:02:43.884Z,16.40
2018-09-06T14:04:23.503Z,21.40
2018-09-06T14:05:59.564Z,20.80
2018-09-06T14:07:35.225Z,18.20
2018-09-06T14:09:11.347Z,18.60
2018-09-06T14:10:48.895Z,18.20
2018-09-06T14:12:27.854Z,15.80
2018-09-06T14:14:04.613Z,21.20
2018-09-06T14:15:42.179Z,19.20
2018-09-06T14:17:23.621Z,18.60
2018-09-06T14:19:02.687Z,16.60
2018-09-06T14:20:41.545Z,19.60
2018-09-06T14:22:19.660Z,20.80
2018-09-06T14:24:01.572Z,19.20
2018-09-06T14:25:43.079Z,18.00
2018-09-06T14:27:19.931Z,15.60
2018-09-06T14:28:57.633Z,18.80
2018-09-06T14:30:37.394Z,18.00
2018-09-06T14:32:23.365Z,18.20
2018-09-06T14:34:01.427Z,19.20
2018-09-06T14:35:43.953Z,20.60
2018-09-06T14:37:22.921Z,18.80
2018-09-06T14:40:43.489Z,15.00
2018-09-06T14:42:23.633Z,19.20
2018-09-06T14:44:01.626Z,18.00
2018-09-06T14:45:38.671Z,14.80
2018-09-06T14:47:16.956Z,19.80
2018-09-06T14:48:56.339Z,18.60
2018-09-06T14:50:40.372Z,18.60
2018-09-06T14:52:16.474Z,18.00
2018-09-06T14:53:54.296Z,20.20
2018-09-06T14:55:32.238Z,19.20
2018-09-06T14:57:09.580Z,22.40
2018-09-06T14:58:46.955Z,20.80
2018-09-06T15:00:24.763Z,22.20
2018-09-06T15:02:03.759Z,23.60
2018-09-06T15:03:44.809Z,23.00
2018-09-06T15:05:22.185Z,20.80
2018-09-06T15:07:00.873Z,22.60
2018-09-06T15:08:41.690Z,26.00
2018-09-06T15:10:18.044Z,25.60
2018-09-06T15:11:54.426Z,24.00
2018-09-06T15:13:31.191Z,26.00
2018-09-06T15:15:11.031Z,23.20
2018-09-06T15:16:51.251Z,21.20
2018-09-06T15:18:27.033Z,25.40
2018-09-06T15:20:09.621Z,16.80
2018-09-06T15:21:45.936Z,25.80
2018-09-06T15:23:22.845Z,22.20
2018-09-06T15:24:59.498Z,27.20
2018-09-06T15:26:36.735Z,24.00
2018-09-06T15:28:14.822Z,24.20
2018-09-06T15:29:52.670Z,25.00
2018-09-06T15:31:35.339Z,23.00
2018-09-06T15:33:14.191Z,26.60
2018-09-06T15:34:55.298Z,26.00
2018-09-06T15:36:31.429Z,26.80
2018-09-06T15:38:08.644Z,28.40
2018-09-06T15:39:46.138Z,27.80
2018-09-06T15:41:23.097Z,24.20
2018-09-06T15:43:01.493Z,26.80
2018-09-06T15:44:40.369Z,27.40
2018-09-06T15:46:24.293Z,27.40
2018-09-06T15:48:01.726Z,27.20
2018-09-06T15:49:37.708Z,27.60
2018-09-06T15:51:16.300Z,25.40
2018-09-06T15:52:53.081Z,26.20
2018-09-06T15:54:30.507Z,27.40
2018-09-06T15:56:07.828Z,29.60
2018-09-06T15:57:49.571Z,28.20
2018-09-06T15:59:36.977Z,28.60
2018-09-06T16:01:15.951Z,28.00
2018-09-06T16:02:51.195Z,26.80
2018-09-06T16:04:35.679Z,22.40
2018-09-06T16:06:11.981Z,26.80
2018-09-06T16:07:47.600Z,27.40
2018-09-06T16:09:23.917Z,27.40
2018-09-06T16:11:02.531Z,27.20
2018-09-06T16:12:40.738Z,27.80
2018-09-06T16:14:17.980Z,29.20
2018-09-06T16:16:00.258Z,18.60
2018-09-06T16:17:38.821Z,21.40
2018-09-06T16:19:14.381Z,27.60
2018-09-06T16:20:50.716Z,26.80
2018-09-06T16:22:28.829Z,27.20
2018-09-06T16:24:08.134Z,27.60
2018-09-06T16:25:51.105Z,27.00
2018-09-06T16:27:31.015Z,27.00
2018-09-06T16:29:10.410Z,26.00
2018-09-06T16:30:46.956Z,27.20
2018-09-06T16:32:25.306Z,27.80
2018-09-06T16:34:01.909Z,27.80
2018-09-06T16:35:39.386Z,26.40
2018-09-06T16:37:16.814Z,24.40
2018-09-06T16:38:53.698Z,26.20
2018-09-06T16:40:30.274Z,27.20
2018-09-06T16:42:06.776Z,25.40
2018-09-06T16:43:46.739Z,26.60
2018-09-06T16:45:25.697Z,27.00
2018-09-06T16:47:04.592Z,23.40
2018-09-06T16:48:41.042Z,19.60
2018-09-06T16:50:19.641Z,26.40
2018-09-06T16:52:03.228Z,25.80
2018-09-06T16:53:39.177Z,23.00
2018-09-06T16:55:17.298Z,27.00
2018-09-06T16:56:55.098Z,26.80
2018-09-06T16:58:40.544Z,24.20
2018-09-06T17:00:25.081Z,23.20
2018-09-06T17:02:02.013Z,22.80
2018-09-06T17:03:46.142Z,25.00
2018-09-06T17:07:05.270Z,24.00
2018-09-06T17:08:44.494Z,21.80
2018-09-06T17:10:29.997Z,27.00
2018-09-06T17:12:12.870Z,25.40
2018-09-06T17:13:50.170Z,25.20
2018-09-06T17:15:31.366Z,17.60
2018-09-06T17:17:07.782Z,25.00
2018-09-06T17:18:47.912Z,23.60
2018-09-06T17:20:25.775Z,26.60
2018-09-06T17:22:07.718Z,22.40
2018-09-06T17:23:44.700Z,23.80
2018-09-06T17:25:20.351Z,27.00
2018-09-06T17:27:00.008Z,21.20
2018-09-06T17:28:37.994Z,20.80
2018-09-06T17:30:16.104Z,25.00
2018-09-06T17:31:55.210Z,24.60
2018-09-06T17:33:34.554Z,25.00
2018-09-06T17:35:16.364Z,26.00
2018-09-06T17:36:57.433Z,25.20
2018-09-06T17:38:33.424Z,23.80
2018-09-06T17:40:10.038Z,24.60
2018-09-06T17:41:47.478Z,22.80
2018-09-06T17:43:27.057Z,27.40
2018-09-06T17:45:13.087Z,25.20
2018-09-06T17:46:50.688Z,23.20
2018-09-06T17:48:27.598Z,25.00
2018-09-06T17:50:07.931Z,25.20
2018-09-06T17:51:44.357Z,17.20
2018-09-06T17:53:35.476Z,23.60
2018-09-06T17:55:14.357Z,25.20
2018-09-06T17:56:52.585Z,26.00
2018-09-06T17:58:29.696Z,25.00
2018-09-06T18:00:08.730Z,25.80
2018-09-06T18:01:45.958Z,24.00
2018-09-06T18:03:22.289Z,27.60
2018-09-06T18:05:06.590Z,22.80
2018-09-06T18:06:43.630Z,24.20
2018-09-06T18:08:20.773Z,23.80
2018-09-06T18:09:57.289Z,25.20
2018-09-06T18:11:33.498Z,27.60
2018-09-06T18:13:15.159Z,21.40
2018-09-06T18:14:55.790Z,27.40
2018-09-06T18:16:33.162Z,25.20
2018-09-06T18:18:10.721Z,26.80
2018-09-06T18:19:47.692Z,23.60
2018-09-06T18:21:24.297Z,25.00
2018-09-06T18:23:01.253Z,26.40
2018-09-06T18:24:39.760Z,28.00
2018-09-06T18:26:16.120Z,28.40
2018-09-06T18:27:52.276Z,26.40
2018-09-06T18:29:28.188Z,19.80
2018-09-06T18:31:04.176Z,25.00
2018-09-06T18:32:41.291Z,23.00
2018-09-06T18:34:19.547Z,27.20
2018-09-06T18:35:58.517Z,27.80
2018-09-06T18:37:34.551Z,26.40
2018-09-06T18:39:10.879Z,25.20
2018-09-06T18:40:46.079Z,27.40
2018-09-06T18:42:22.175Z,27.40
2018-09-06T18:43:58.345Z,28.80
2018-09-06T18:45:36.895Z,26.00
2018-09-06T18:47:13.175Z,26.00
2018-09-06T18:48:49.220Z,27.40
2018-09-06T18:50:26.711Z,28.40
2018-09-06T18:52:02.635Z,29.00
2018-09-06T18:53:40.819Z,28.40
2018-09-06T18:57:04.750Z,26.00
2018-09-06T18:58:42.555Z,29.00
2018-09-06T19:00:25.863Z,27.20
2018-09-06T19:02:05.090Z,27.00
2018-09-06T19:03:43.422Z,29.00
2018-09-06T19:05:25.763Z,27.20
2018-09-06T19:07:05.873Z,30.00
2018-09-06T19:08:44.378Z,31.20
2018-09-06T19:10:22.974Z,27.00
2018-09-06T19:12:05.170Z,27.60
2018-09-06T19:13:44.955Z,29.20
2018-09-06T19:15:24.401Z,29.20
2018-09-06T19:17:03.010Z,28.60
2018-09-06T19:18:42.629Z,29.00
2018-09-06T19:20:20.022Z,28.80
2018-09-06T19:22:01.227Z,27.40
2018-09-06T19:23:44.275Z,22.40
2018-09-06T19:25:26.144Z,26.20
2018-09-06T19:27:04.605Z,23.80
2018-09-06T19:28:48.494Z,28.40
2018-09-06T19:30:25.910Z,20.80
2018-09-06T19:32:07.482Z,28.00
2018-09-06T19:33:45.527Z,27.00
2018-09-06T19:35:29.437Z,26.20
2018-09-06T19:38:20.034Z,26.20
2018-09-06T19:39:57.384Z,24.00
2018-09-06T19:41:39.048Z,25.00
2018-09-06T19:44:30.706Z,27.60
2018-09-06T19:46:10.693Z,27.20
2018-09-06T19:47:48.211Z,27.80
2018-09-06T19:49:27.574Z,25.60
2018-09-06T19:51:11.277Z,28.80
2018-09-06T19:52:48.821Z,27.80
2018-09-06T19:54:26.827Z,26.80
2018-09-06T19:56:19.052Z,29.20
2018-09-06T19:57:57.306Z,27.80
2018-09-06T19:59:37.626Z,26.60
2018-09-06T20:01:14.721Z,27.40
2018-09-06T20:02:53.931Z,27.80
2018-09-06T20:04:31.949Z,23.20
2018-09-06T20:06:09.714Z,30.00
2018-09-06T20:07:45.017Z,25.60
2018-09-06T20:09:21.402Z,29.20
2018-09-06T20:10:57.417Z,29.40
2018-09-06T20:12:36.620Z,21.00
2018-09-06T20:14:13.929Z,27.00
2018-09-06T20:15:49.557Z,30.60
2018-09-06T20:17:30.966Z,28.80
2018-09-06T20:19:10.838Z,27.00
2018-09-06T20:20:48.739Z,26.60
2018-09-06T20:22:26.443Z,22.80
2018-09-06T20:24:03.899Z,28.00
2018-09-06T20:25:39.256Z,25.80
2018-09-06T20:27:15.988Z,28.80
2018-09-06T20:28:54.857Z,23.40
2018-09-06T20:30:32.578Z,26.80
2018-09-06T20:32:08.208Z,26.80
2018-09-06T20:33:45.136Z,25.60
2018-09-06T20:35:27.277Z,26.60
2018-09-06T20:37:03.814Z,25.40
2018-09-06T20:38:40.947Z,27.20
2018-09-06T20:40:18.591Z,26.40
2018-09-06T20:42:01.517Z,26.80
2018-09-06T20:43:40.661Z,26.80
2018-09-06T20:45:18.580Z,26.80
2018-09-06T20:46:54.577Z,29.00
2018-09-06T20:48:35.599Z,16.60
2018-09-06T20:50:16.581Z,26.40
2018-09-06T20:51:54.736Z,22.80
2018-09-06T20:53:30.836Z,26.40
2018-09-06T20:55:09.312Z,22.00
2018-09-06T20:56:49.095Z,23.80
2018-09-06T20:58:25.446Z,26.20
2018-09-06T21:01:51.518Z,22.20
2018-09-06T21:03:28.042Z,18.40
2018-09-06T21:05:10.568Z,23.40
2018-09-06T21:06:48.597Z,23.80
2018-09-06T21:08:27.250Z,23.80
2018-09-06T21:10:06.846Z,21.60
2018-09-06T21:11:44.513Z,22.40
2018-09-06T21:13:21.248Z,21.60